Time;durP1;ratioP1;P1;durP2;ratioP2;P2;SDS_P1;SDS_P2;PMS_P1;PMS_P2;Temp;Humidity;BMP_temperature;BMP_pressure;BME280_temperature;BME280_humidity;BME280_pressure;Samples;Min_cycle;Max_cycle;Signal;HPM_P1;HPM_P2
2022/11/10 00:01:43;;;;;;;2.03;0.40;;;23.20;99.90;;;;;;5028229;28;20653;-79
2022/11/10 00:04:14;;;;;;;0.47;0.40;;;23.30;99.90;;;;;;5030283;28;20556;-76
2022/11/10 00:06:45;;;;;;;1.77;0.50;;;23.40;99.90;;;;;;5030466;28;20198;-76
2022/11/10 00:09:16;;;;;;;0.73;0.40;;;23.60;99.90;;;;;;5033201;28;20654;-76
2022/11/10 00:11:47;;;;;;;0.95;0.40;;;23.60;99.90;;;;;;5032763;28;20692;-80
2022/11/10 00:17:07;;;;;;;1.35;0.40;;;23.80;99.90;;;;;;5031349;28;20197;-79
2022/11/10 00:19:38;;;;;;;0.77;0.40;;;23.90;99.90;;;;;;5034776;28;20218;-77
2022/11/10 00:22:08;;;;;;;1.35;0.30;;;24.00;99.90;;;;;;5030616;28;20271;-80
2022/11/10 00:24:39;;;;;;;2.67;0.40;;;23.90;99.90;;;;;;5033435;28;20661;-77
2022/11/10 00:27:10;;;;;;;1.65;0.43;;;24.00;99.90;;;;;;5031441;28;20662;-77
2022/11/10 00:29:43;;;;;;;1.17;0.40;;;24.10;99.90;;;;;;5033666;28;20244;-78
2022/11/10 00:32:14;;;;;;;2.03;0.45;;;24.00;99.90;;;;;;5029993;28;20223;-82
2022/11/10 00:34:45;;;;;;;1.52;0.30;;;24.20;99.90;;;;;;5031081;28;20265;-79
2022/11/10 00:37:16;;;;;;;2.05;0.45;;;24.30;99.90;;;;;;5032139;28;20234;-79
2022/11/10 00:39:47;;;;;;;1.02;0.30;;;24.00;99.90;;;;;;5032273;28;20300;-77
2022/11/10 00:42:17;;;;;;;0.95;0.30;;;24.10;99.90;;;;;;5032772;28;20197;-78
2022/11/10 00:44:50;;;;;;;0.90;0.30;;;24.00;99.90;;;;;;5027695;28;20194;-76
2022/11/10 00:47:21;;;;;;;0.52;0.22;;;23.90;99.90;;;;;;5027782;28;20201;-77
2022/11/10 00:49:51;;;;;;;0.32;0.28;;;23.80;99.90;;;;;;5031575;28;20556;-78
2022/11/10 00:52:22;;;;;;;1.17;0.57;;;23.70;99.90;;;;;;5027747;28;20272;-76
2022/11/10 00:54:53;;;;;;;1.80;0.47;;;23.80;99.90;;;;;;5031797;28;20532;-80
2022/11/10 00:57:24;;;;;;;1.35;0.50;;;23.80;99.90;;;;;;5029665;28;20198;-76
2022/11/10 00:59:56;;;;;;;2.15;0.50;;;23.90;99.90;;;;;;5030511;28;20681;-76
2022/11/10 01:02:27;;;;;;;0.60;0.30;;;23.80;99.90;;;;;;5027622;28;20198;-76
2022/11/10 01:04:58;;;;;;;0.38;0.30;;;23.90;99.90;;;;;;5027167;28;20233;-79
2022/11/10 01:07:29;;;;;;;0.40;0.30;;;23.90;99.90;;;;;;5030538;28;20198;-78
2022/11/10 01:09:59;;;;;;;1.35;0.30;;;24.00;99.90;;;;;;5028054;28;20205;-76
2022/11/10 01:12:32;;;;;;;1.95;0.30;;;24.10;99.90;;;;;;5031501;28;20202;-76
2022/11/10 01:15:05;;;;;;;1.63;0.30;;;23.90;99.90;;;;;;5032080;28;20190;-77
2022/11/10 01:17:36;;;;;;;1.17;0.40;;;24.00;99.90;;;;;;5033107;28;20207;-75
2022/11/10 01:20:08;;;;;;;1.67;0.40;;;24.00;99.90;;;;;;5033158;28;20221;-77
2022/11/10 01:22:39;;;;;;;1.88;0.28;;;23.60;99.90;;;;;;5028701;28;20210;-76
2022/11/10 01:25:11;;;;;;;2.95;0.57;;;23.50;99.90;;;;;;5031455;28;20194;-77
2022/11/10 01:27:42;;;;;;;2.28;0.30;;;23.60;99.90;;;;;;5031727;28;20194;-76
2022/11/10 01:30:16;;;;;;;1.27;0.38;;;23.60;99.90;;;;;;5033723;28;20254;-77
2022/11/10 01:32:46;;;;;;;1.23;0.40;;;23.50;99.90;;;;;;5031202;28;20637;-79
2022/11/10 01:35:18;;;;;;;0.95;0.47;;;23.50;99.90;;;;;;5025935;28;20205;-76
2022/11/10 01:37:48;;;;;;;2.28;0.43;;;23.60;99.90;;;;;;5028913;28;20233;-78
2022/11/10 01:40:19;;;;;;;2.33;0.38;;;23.60;99.90;;;;;;5020898;28;20242;-77
2022/11/10 01:42:53;;;;;;;1.40;0.40;;;23.70;99.90;;;;;;5031758;28;20190;-76
2022/11/10 01:45:48;;;;;;;1.67;0.40;;;23.70;99.90;;;;;;5032991;28;20328;-76
2022/11/10 01:48:24;;;;;;;2.22;0.40;;;23.80;99.90;;;;;;5023095;28;20277;-79
2022/11/10 01:50:55;;;;;;;4.00;0.43;;;23.80;99.90;;;;;;5033935;28;20190;-77
2022/11/10 01:53:27;;;;;;;2.70;0.50;;;23.70;99.90;;;;;;5032716;28;20198;-76
2022/11/10 01:56:00;;;;;;;2.83;0.47;;;23.50;99.90;;;;;;5024826;28;20200;-77
2022/11/10 01:58:38;;;;;;;1.02;0.40;;;23.40;99.90;;;;;;5022756;28;20202;-77
2022/11/10 02:01:12;;;;;;;1.38;0.40;;;23.50;99.90;;;;;;5027698;28;20657;-74
2022/11/10 02:03:50;;;;;;;2.25;0.43;;;23.50;99.90;;;;;;5029399;28;20206;-78
2022/11/10 02:06:26;;;;;;;1.95;0.38;;;23.60;99.90;;;;;;5031577;28;20198;-76
2022/11/10 02:08:58;;;;;;;0.75;0.30;;;23.70;99.90;;;;;;5032706;28;20198;-76
2022/11/10 02:11:30;;;;;;;2.55;0.55;;;23.60;99.90;;;;;;5029965;28;20612;-77
2022/11/10 02:14:02;;;;;;;1.33;0.50;;;23.50;99.90;;;;;;5032049;28;20278;-76
2022/11/10 02:16:35;;;;;;;3.08;0.50;;;23.50;99.90;;;;;;5021957;28;20194;-78
2022/11/10 02:19:17;;;;;;;1.63;0.40;;;23.40;99.90;;;;;;5029767;28;20558;-74
2022/11/10 02:21:50;;;;;;;2.80;0.57;;;23.50;99.90;;;;;;5027808;28;20221;-78
2022/11/10 02:24:21;;;;;;;2.20;0.50;;;23.40;99.90;;;;;;5025756;28;20202;-79
2022/11/10 02:26:56;;;;;;;3.45;0.65;;;23.60;99.90;;;;;;5028846;28;20194;-80
2022/11/10 02:29:27;;;;;;;1.77;0.40;;;23.60;99.90;;;;;;5029348;28;20219;-80
2022/11/10 02:31:58;;;;;;;0.55;0.55;;;23.40;99.90;;;;;;5029602;28;20190;-79
2022/11/10 02:34:29;;;;;;;1.90;0.50;;;23.30;99.90;;;;;;5031984;28;20268;-76
2022/11/10 02:37:01;;;;;;;2.88;0.50;;;23.20;99.90;;;;;;5022556;28;20313;-76
2022/11/10 02:39:32;;;;;;;2.17;0.40;;;23.40;99.90;;;;;;5027375;28;20641;-80
2022/11/10 02:42:03;;;;;;;1.23;0.47;;;23.40;99.90;;;;;;5032355;28;20214;-76
2022/11/10 02:44:34;;;;;;;0.85;0.30;;;23.30;99.90;;;;;;5029441;28;20198;-77
2022/11/10 02:47:04;;;;;;;2.35;0.50;;;23.30;99.90;;;;;;5032044;28;20206;-77
2022/11/10 02:49:35;;;;;;;2.17;0.40;;;23.30;99.90;;;;;;5031153;28;20198;-78
2022/11/10 02:52:08;;;;;;;1.92;0.47;;;23.10;99.90;;;;;;5024310;28;20186;-76
2022/11/10 02:54:39;;;;;;;1.23;0.70;;;23.20;99.90;;;;;;5031747;28;20313;-78
2022/11/10 02:57:09;;;;;;;1.15;0.30;;;23.20;99.90;;;;;;5031280;28;20200;-78
2022/11/10 02:59:40;;;;;;;1.63;0.38;;;22.90;99.90;;;;;;5024855;28;20186;-83
2022/11/10 03:02:11;;;;;;;2.08;0.30;;;22.90;99.90;;;;;;5017653;28;20311;-77
2022/11/10 03:04:42;;;;;;;2.22;0.50;;;23.00;99.90;;;;;;5031139;28;20213;-78
2022/11/10 03:07:14;;;;;;;1.33;0.28;;;23.10;99.90;;;;;;5030645;28;20658;-76
2022/11/10 03:09:45;;;;;;;2.28;0.40;;;23.20;99.90;;;;;;5032386;28;20192;-79
2022/11/10 03:12:16;;;;;;;3.35;0.60;;;23.30;99.90;;;;;;5031766;28;20221;-79
2022/11/10 03:14:47;;;;;;;2.70;0.38;;;23.30;99.90;;;;;;5032543;28;20269;-77
2022/11/10 03:17:17;;;;;;;1.95;0.30;;;23.10;99.90;;;;;;5030977;28;20191;-78
2022/11/10 03:19:49;;;;;;;0.93;0.40;;;23.00;99.90;;;;;;5032729;28;20191;-77
2022/11/10 03:22:21;;;;;;;0.88;0.30;;;22.80;99.90;;;;;;5031352;28;20220;-75
2022/11/10 03:24:52;;;;;;;1.15;0.30;;;22.80;99.90;;;;;;5032668;28;20205;-77
2022/11/10 03:27:23;;;;;;;1.15;0.40;;;23.00;99.90;;;;;;5020452;28;20310;-77
2022/11/10 03:29:53;;;;;;;2.65;0.30;;;22.90;99.90;;;;;;5025781;28;20225;-77
2022/11/10 03:32:24;;;;;;;2.13;0.50;;;22.70;99.90;;;;;;5028739;28;20589;-77
2022/11/10 03:34:55;;;;;;;2.63;0.40;;;22.80;99.90;;;;;;5022514;28;20183;-76
2022/11/10 03:37:28;;;;;;;2.78;0.30;;;22.80;99.90;;;;;;5031408;28;20276;-78
2022/11/10 03:39:59;;;;;;;1.48;0.47;;;22.70;99.90;;;;;;5029564;28;20199;-76
2022/11/10 03:42:30;;;;;;;1.15;0.40;;;22.60;99.90;;;;;;5030997;28;20308;-80
2022/11/10 03:45:00;;;;;;;0.73;0.30;;;22.70;99.90;;;;;;5027327;28;20203;-75
2022/11/10 03:47:31;;;;;;;1.13;0.30;;;22.80;99.90;;;;;;5033236;28;20198;-76
2022/11/10 03:50:02;;;;;;;2.35;0.60;;;22.90;99.90;;;;;;5034182;28;20202;-76
2022/11/10 03:52:37;;;;;;;2.00;0.40;;;23.00;99.90;;;;;;5025278;28;20203;-75
2022/11/10 03:55:08;;;;;;;0.93;0.30;;;22.90;99.90;;;;;;5031070;28;20200;-75
2022/11/10 03:57:39;;;;;;;1.20;0.30;;;22.80;99.90;;;;;;5032030;28;20194;-77
2022/11/10 04:00:11;;;;;;;1.63;0.60;;;22.90;99.90;;;;;;5030632;28;20213;-74
2022/11/10 04:02:42;;;;;;;0.82;0.32;;;22.90;99.90;;;;;;5029802;28;20222;-76
2022/11/10 04:10:51;;;;;;;2.85;0.30;;;22.90;99.90;;;;;;5033869;28;20206;-76
2022/11/10 04:16:09;;;;;;;1.40;0.30;;;22.90;99.90;;;;;;5031162;28;20204;-76
2022/11/10 04:18:39;;;;;;;1.15;0.40;;;23.00;99.90;;;;;;5032963;28;20260;-79
2022/11/10 04:21:11;;;;;;;0.93;0.30;;;23.10;99.90;;;;;;5035688;28;20216;-75
2022/11/10 04:23:44;;;;;;;1.10;0.30;;;22.90;99.90;;;;;;5026862;28;20189;-80
2022/11/10 04:26:32;;;;;;;1.58;0.30;;;22.80;99.90;;;;;;5033348;28;20206;-77
2022/11/10 04:29:04;;;;;;;2.20;0.32;;;22.80;99.90;;;;;;5028979;28;20731;-78
2022/11/10 04:31:36;;;;;;;3.53;0.68;;;22.80;99.90;;;;;;5035007;28;20196;-78
2022/11/10 04:34:08;;;;;;;1.27;0.30;;;22.70;99.90;;;;;;5024275;28;20205;-76
2022/11/10 04:36:40;;;;;;;0.70;0.30;;;22.60;99.90;;;;;;5030855;28;20237;-76
2022/11/10 04:39:13;;;;;;;2.47;0.45;;;22.70;99.90;;;;;;5029846;28;20241;-76
2022/11/10 04:41:43;;;;;;;1.00;0.30;;;22.80;99.90;;;;;;5033879;28;20217;-76
2022/11/10 04:44:14;;;;;;;2.17;0.30;;;22.80;99.90;;;;;;5034026;28;20201;-76
2022/11/10 04:46:45;;;;;;;3.30;0.40;;;22.80;99.90;;;;;;5032117;28;20194;-78
2022/11/10 04:49:16;;;;;;;3.13;0.30;;;22.80;99.90;;;;;;5029420;28;20779;-77
2022/11/10 04:51:46;;;;;;;2.60;0.60;;;22.80;99.90;;;;;;5033793;28;20194;-78
2022/11/10 04:54:19;;;;;;;1.85;0.15;;;22.70;99.90;;;;;;5029612;28;20198;-76
2022/11/10 04:56:50;;;;;;;2.63;0.43;;;22.70;99.90;;;;;;5033730;28;20214;-78
2022/11/10 04:59:21;;;;;;;2.28;0.30;;;22.70;99.90;;;;;;5026422;28;20297;-76
2022/11/10 05:01:51;;;;;;;1.42;0.40;;;22.60;99.90;;;;;;5031338;28;20221;-78
2022/11/10 05:04:23;;;;;;;0.90;0.20;;;22.60;99.90;;;;;;5023797;28;20203;-78
2022/11/10 05:06:54;;;;;;;0.80;0.30;;;22.60;99.90;;;;;;5029692;28;20195;-77
2022/11/10 05:09:27;;;;;;;2.22;0.40;;;22.60;99.90;;;;;;5031111;28;20199;-79
2022/11/10 05:11:57;;;;;;;1.45;0.50;;;22.70;99.90;;;;;;5029736;28;20224;-80
2022/11/10 05:14:28;;;;;;;3.13;0.40;;;22.80;99.90;;;;;;5033038;28;20186;-76
2022/11/10 05:16:59;;;;;;;4.43;0.60;;;22.90;99.90;;;;;;5028231;28;20199;-77
2022/11/10 05:19:31;;;;;;;1.15;0.40;;;22.80;99.90;;;;;;5034350;28;20550;-76
2022/11/10 05:22:01;;;;;;;1.75;0.45;;;22.80;99.90;;;;;;5029655;28;20210;-78
2022/11/10 05:24:34;;;;;;;1.45;0.40;;;22.70;99.90;;;;;;5032196;28;20204;-77
2022/11/10 05:27:05;;;;;;;1.98;0.60;;;22.60;99.90;;;;;;5024725;28;20194;-81
2022/11/10 05:29:36;;;;;;;1.35;0.43;;;22.60;99.90;;;;;;5032708;28;20228;-76
2022/11/10 05:32:07;;;;;;;2.67;0.40;;;22.60;99.90;;;;;;5025044;28;20204;-76
2022/11/10 05:34:38;;;;;;;1.65;0.38;;;22.60;99.90;;;;;;5033457;28;20628;-78
2022/11/10 05:37:09;;;;;;;1.15;0.38;;;22.50;99.90;;;;;;5025663;28;20226;-79
2022/11/10 05:39:42;;;;;;;1.35;0.50;;;22.40;99.90;;;;;;5028813;28;20573;-75
2022/11/10 05:42:13;;;;;;;1.20;0.47;;;22.50;99.90;;;;;;5023007;28;20214;-77
2022/11/10 05:44:43;;;;;;;1.75;0.50;;;22.50;99.90;;;;;;5031599;28;20204;-75
2022/11/10 05:47:14;;;;;;;2.55;0.65;;;22.50;99.90;;;;;;5032383;28;20230;-76
2022/11/10 05:49:45;;;;;;;1.48;0.40;;;22.40;99.90;;;;;;5031308;28;20205;-77
2022/11/10 05:52:16;;;;;;;2.30;0.47;;;22.30;99.90;;;;;;5025323;28;20194;-77
2022/11/10 05:54:48;;;;;;;0.80;0.40;;;22.30;99.90;;;;;;5033262;28;20182;-76
2022/11/10 05:57:19;;;;;;;2.00;0.50;;;22.10;99.90;;;;;;5032439;28;20194;-75
2022/11/10 05:59:50;;;;;;;2.58;0.40;;;22.20;99.90;;;;;;5031608;28;20212;-76
2022/11/10 06:02:21;;;;;;;3.35;0.60;;;22.10;99.90;;;;;;5029091;28;20234;-76
2022/11/10 06:04:52;;;;;;;1.52;0.30;;;22.10;99.90;;;;;;5030407;28;20201;-76
2022/11/10 06:07:23;;;;;;;2.67;0.40;;;22.10;99.90;;;;;;5031624;28;20228;-77
2022/11/10 06:09:55;;;;;;;2.50;0.70;;;22.10;99.90;;;;;;5025398;28;20205;-76
2022/11/10 06:12:29;;;;;;;1.40;0.43;;;22.00;99.90;;;;;;5032282;28;20214;-74
2022/11/10 06:15:00;;;;;;;1.48;0.47;;;22.00;99.90;;;;;;5028994;28;20194;-76
2022/11/10 06:17:30;;;;;;;2.08;0.40;;;22.00;99.90;;;;;;5028814;28;20562;-76
2022/11/10 06:20:02;;;;;;;2.08;0.50;;;22.00;99.90;;;;;;5030174;28;20194;-83
2022/11/10 06:22:33;;;;;;;1.77;0.30;;;22.00;99.90;;;;;;5028258;28;20218;-79
2022/11/10 06:25:06;;;;;;;1.67;0.35;;;22.00;99.90;;;;;;5030844;28;20193;-78
2022/11/10 06:27:36;;;;;;;1.65;0.50;;;22.00;99.90;;;;;;5030167;28;20199;-77
2022/11/10 06:30:08;;;;;;;2.78;0.57;;;22.00;99.90;;;;;;5031281;28;20189;-76
2022/11/10 06:32:38;;;;;;;0.70;0.40;;;21.90;99.90;;;;;;5030898;28;20660;-78
2022/11/10 06:35:10;;;;;;;2.15;0.40;;;21.90;99.90;;;;;;5031089;28;20190;-75
2022/11/10 06:37:40;;;;;;;1.52;0.43;;;21.80;99.90;;;;;;5030659;28;20234;-75
2022/11/10 06:40:16;;;;;;;2.97;0.52;;;21.80;99.90;;;;;;5027870;28;20209;-76
2022/11/10 06:42:47;;;;;;;1.45;0.30;;;21.80;99.90;;;;;;5030145;28;20576;-77
2022/11/10 06:45:19;;;;;;;2.05;0.50;;;21.80;99.90;;;;;;5031090;28;20217;-78
2022/11/10 06:47:49;;;;;;;0.60;0.40;;;21.90;99.90;;;;;;5031368;28;20232;-76
2022/11/10 06:50:20;;;;;;;2.38;0.50;;;21.80;99.90;;;;;;5028991;28;20778;-77
2022/11/10 06:52:57;;;;;;;2.38;0.32;;;21.80;99.90;;;;;;5028332;28;20201;-76
2022/11/10 06:55:30;;;;;;;1.25;0.40;;;21.70;99.90;;;;;;5027260;28;20190;-77
2022/11/10 06:58:01;;;;;;;1.75;0.50;;;21.70;99.90;;;;;;5030092;28;20206;-76
2022/11/10 07:00:32;;;;;;;1.05;0.40;;;21.60;99.90;;;;;;5030284;28;20198;-75
2022/11/10 07:03:05;;;;;;;1.20;0.40;;;21.50;99.90;;;;;;5029422;28;20301;-77
2022/11/10 07:05:37;;;;;;;1.85;0.38;;;21.40;99.90;;;;;;5028052;28;20246;-76
2022/11/10 07:08:09;;;;;;;2.13;0.40;;;21.20;99.90;;;;;;5028946;28;20545;-77
2022/11/10 07:10:42;;;;;;;1.52;0.40;;;21.10;99.90;;;;;;5029633;28;20190;-75
2022/11/10 07:13:13;;;;;;;1.75;0.40;;;21.10;99.90;;;;;;5030145;28;20197;-76
2022/11/10 07:15:43;;;;;;;0.82;0.50;;;21.10;99.90;;;;;;5027431;28;20199;-75
2022/11/10 07:18:14;;;;;;;0.95;0.40;;;21.10;99.90;;;;;;5030654;28;20921;-75
2022/11/10 07:20:46;;;;;;;1.00;0.40;;;21.10;99.90;;;;;;5035714;28;20273;-76
2022/11/10 07:23:17;;;;;;;2.85;0.40;;;21.00;99.90;;;;;;5032017;28;20218;-76
2022/11/10 07:25:50;;;;;;;1.60;0.55;;;21.00;99.90;;;;;;5033957;28;20204;-76
2022/11/10 07:28:20;;;;;;;1.92;0.50;;;20.90;99.90;;;;;;5033093;28;20232;-77
2022/11/10 07:30:51;;;;;;;1.08;0.50;;;20.80;99.90;;;;;;5029078;28;20625;-78
2022/11/10 07:33:22;;;;;;;3.55;0.55;;;20.80;99.90;;;;;;5034837;28;20235;-76
2022/11/10 07:36:02;;;;;;;1.13;0.40;;;20.70;99.90;;;;;;5033440;28;20198;-76
2022/11/10 07:38:33;;;;;;;1.67;0.50;;;20.70;99.90;;;;;;5033710;28;20277;-76
2022/11/10 07:41:05;;;;;;;4.20;0.60;;;20.50;99.90;;;;;;5024594;28;20195;-76
2022/11/10 07:43:36;;;;;;;3.47;0.50;;;20.50;99.90;;;;;;5031202;28;20240;-76
2022/11/10 07:46:07;;;;;;;3.33;0.50;;;20.40;99.90;;;;;;5033387;28;20226;-75
2022/11/10 07:48:38;;;;;;;1.58;0.43;;;20.30;99.90;;;;;;5033761;28;20194;-77
2022/11/10 07:51:09;;;;;;;3.10;0.50;;;20.20;99.90;;;;;;5029471;28;20566;-77
2022/11/10 07:53:40;;;;;;;1.52;0.43;;;20.10;99.90;;;;;;5031613;28;20209;-76
2022/11/10 07:56:13;;;;;;;1.33;0.40;;;20.00;99.90;;;;;;5030762;28;20209;-76
2022/11/10 07:58:44;;;;;;;3.78;0.60;;;20.00;99.90;;;;;;5032002;28;20252;-77
2022/11/10 08:01:14;;;;;;;1.58;0.60;;;19.90;99.90;;;;;;5029510;28;20198;-79
2022/11/10 08:03:45;;;;;;;1.55;0.40;;;19.90;99.90;;;;;;5028436;28;20236;-76
2022/11/10 08:06:16;;;;;;;3.70;0.65;;;19.90;99.90;;;;;;5034837;28;20187;-78
2022/11/10 08:08:48;;;;;;;2.92;0.52;;;19.80;99.90;;;;;;5033043;28;20197;-77
2022/11/10 08:11:21;;;;;;;2.50;0.70;;;19.80;99.90;;;;;;5032577;28;20196;-76
2022/11/10 08:13:52;;;;;;;3.38;0.40;;;19.80;99.90;;;;;;5033414;28;20194;-78
2022/11/10 08:16:23;;;;;;;2.40;0.57;;;19.70;99.90;;;;;;5034446;28;20202;-79
2022/11/10 08:18:53;;;;;;;2.47;0.55;;;19.70;99.90;;;;;;5032086;28;20206;-78
2022/11/10 08:21:25;;;;;;;4.93;0.88;;;19.70;99.90;;;;;;5033708;28;20694;-78
2022/11/10 08:23:55;;;;;;;2.67;0.88;;;19.60;99.90;;;;;;5033739;28;20216;-79
2022/11/10 08:26:28;;;;;;;2.13;0.70;;;19.60;99.90;;;;;;5029492;28;20195;-77
2022/11/10 08:28:59;;;;;;;1.10;0.50;;;19.60;99.90;;;;;;5030183;28;20226;-77
2022/11/10 08:31:30;;;;;;;1.00;0.50;;;19.50;99.90;;;;;;5032505;28;20194;-76
2022/11/10 08:34:00;;;;;;;5.28;0.60;;;19.50;99.90;;;;;;5032488;28;20191;-78
2022/11/10 08:36:31;;;;;;;1.25;0.60;;;19.50;99.90;;;;;;5031805;28;20232;-75
2022/11/10 08:39:02;;;;;;;1.63;0.45;;;19.50;99.90;;;;;;5033238;28;20559;-77
2022/11/10 08:41:35;;;;;;;1.38;0.57;;;19.40;99.90;;;;;;5030164;28;20561;-77
2022/11/10 08:44:05;;;;;;;1.08;0.60;;;19.40;99.90;;;;;;5032707;28;20748;-80
2022/11/10 08:46:36;;;;;;;1.27;0.50;;;19.40;99.90;;;;;;5032536;28;20198;-77
2022/11/10 08:49:07;;;;;;;5.05;0.85;;;19.40;99.90;;;;;;5033277;28;20228;-79
2022/11/10 08:51:38;;;;;;;0.80;0.40;;;19.40;99.90;;;;;;5026936;28;20207;-78
2022/11/10 08:54:09;;;;;;;4.05;0.73;;;19.40;99.90;;;;;;5030432;28;20213;-78
2022/11/10 08:56:41;;;;;;;1.40;0.50;;;19.40;99.90;;;;;;5031798;28;20230;-76
2022/11/10 08:59:12;;;;;;;1.38;0.50;;;19.40;99.90;;;;;;5032235;28;20192;-79
2022/11/10 09:01:43;;;;;;;1.70;0.60;;;19.30;99.90;;;;;;5033744;28;20198;-75
2022/11/10 09:04:14;;;;;;;2.08;0.70;;;19.30;99.90;;;;;;5031048;28;20218;-77
2022/11/10 09:06:45;;;;;;;2.50;0.60;;;19.30;99.90;;;;;;5026376;28;20233;-75
2022/11/10 09:09:16;;;;;;;1.85;0.50;;;19.30;99.90;;;;;;5030796;28;20214;-78
2022/11/10 09:11:48;;;;;;;2.60;0.63;;;19.30;99.90;;;;;;5029737;28;20292;-77
2022/11/10 09:14:19;;;;;;;3.47;0.60;;;19.30;99.90;;;;;;5033064;28;20661;-78
2022/11/10 09:16:50;;;;;;;1.88;0.60;;;19.30;99.90;;;;;;5033618;28;20594;-75
2022/11/10 09:19:21;;;;;;;3.22;0.68;;;19.20;99.90;;;;;;5032473;28;20196;-78
2022/11/10 09:21:52;;;;;;;3.42;0.70;;;19.20;99.90;;;;;;5029704;28;20194;-77
2022/11/10 09:24:22;;;;;;;4.53;0.70;;;19.20;99.90;;;;;;5032227;28;20572;-75
2022/11/10 09:26:55;;;;;;;2.55;0.80;;;19.20;99.90;;;;;;5032128;28;20190;-76
2022/11/10 09:29:26;;;;;;;2.70;0.60;;;19.20;99.90;;;;;;5031499;28;20240;-78
2022/11/10 09:31:57;;;;;;;2.10;0.60;;;19.20;99.90;;;;;;5028734;28;20617;-78
2022/11/10 09:34:28;;;;;;;1.33;0.50;;;19.20;99.90;;;;;;5030690;28;20617;-79
2022/11/10 09:36:58;;;;;;;2.40;0.60;;;19.10;99.90;;;;;;5025397;28;20320;-76
2022/11/10 09:39:29;;;;;;;2.80;0.50;;;19.10;99.90;;;;;;5030002;28;20298;-79
2022/11/10 09:42:02;;;;;;;2.03;0.50;;;19.10;99.90;;;;;;5029881;28;20723;-77
2022/11/10 09:44:37;;;;;;;3.05;0.60;;;19.10;99.90;;;;;;5032082;28;20199;-79
2022/11/10 09:47:14;;;;;;;3.50;0.40;;;19.10;99.90;;;;;;5030276;28;20188;-75
2022/11/10 09:49:48;;;;;;;1.65;0.45;;;19.10;99.90;;;;;;5028654;28;20201;-76
2022/11/10 09:52:22;;;;;;;2.30;0.38;;;19.10;99.90;;;;;;5030910;28;20541;-76
2022/11/10 09:54:58;;;;;;;1.48;0.57;;;19.10;99.90;;;;;;5027475;28;20202;-79
2022/11/10 09:57:31;;;;;;;1.52;0.55;;;19.00;99.90;;;;;;5029525;28;20194;-76
2022/11/10 10:00:02;;;;;;;2.70;0.50;;;19.00;99.90;;;;;;5031566;28;20217;-76
2022/11/10 10:02:38;;;;;;;3.25;0.70;;;19.00;99.90;;;;;;5024659;28;20247;-78
2022/11/10 10:05:36;;;;;;;2.05;0.47;;;19.00;99.90;;;;;;5025542;28;20634;-77
2022/11/10 10:08:09;;;;;;;3.72;0.55;;;19.00;99.90;;;;;;5030345;28;20538;-75
2022/11/10 10:10:45;;;;;;;0.98;0.50;;;19.00;99.90;;;;;;5030803;28;20285;-77
2022/11/10 10:13:39;;;;;;;1.52;0.50;;;19.00;99.90;;;;;;5028325;28;20198;-76
2022/11/10 10:16:18;;;;;;;3.03;0.60;;;19.00;99.90;;;;;;5030230;28;20202;-76
2022/11/10 10:18:56;;;;;;;3.38;0.52;;;19.00;99.90;;;;;;5025056;28;20653;-76
2022/11/10 10:21:47;;;;;;;1.85;0.70;;;19.00;99.90;;;;;;5029847;28;20198;-77
2022/11/10 10:24:21;;;;;;;2.92;0.45;;;19.00;99.90;;;;;;5032314;28;20221;-76
2022/11/10 10:26:55;;;;;;;3.58;0.75;;;18.90;99.90;;;;;;5025940;28;20603;-77
2022/11/10 10:29:32;;;;;;;2.47;0.50;;;18.90;99.90;;;;;;5032488;28;20224;-76
2022/11/10 10:32:03;;;;;;;2.83;0.40;;;18.90;99.90;;;;;;5030302;28;20194;-76
2022/11/10 10:34:35;;;;;;;1.55;0.40;;;18.90;99.90;;;;;;5030642;28;20281;-76
2022/11/10 10:37:06;;;;;;;1.35;0.40;;;18.90;99.90;;;;;;5029190;28;20654;-77
2022/11/10 10:39:44;;;;;;;3.38;0.50;;;18.90;99.90;;;;;;5032870;28;20191;-78
2022/11/10 10:42:28;;;;;;;2.30;0.45;;;18.90;99.90;;;;;;5030648;28;20386;-76
2022/11/10 10:45:19;;;;;;;1.73;0.40;;;18.90;99.90;;;;;;5030309;28;20738;-76
2022/11/10 10:47:52;;;;;;;0.93;0.40;;;18.90;99.90;;;;;;5026769;28;20202;-77
2022/11/10 10:50:27;;;;;;;2.70;0.45;;;18.90;99.90;;;;;;5030317;28;20224;-78
2022/11/10 10:53:14;;;;;;;3.47;0.50;;;18.90;99.90;;;;;;5031097;28;20201;-77
2022/11/10 10:55:50;;;;;;;0.47;0.30;;;18.80;99.90;;;;;;5031720;28;20269;-80
2022/11/10 10:58:27;;;;;;;6.90;0.60;;;18.80;99.90;;;;;;5023693;28;20669;-78
2022/11/10 11:01:05;;;;;;;1.98;0.40;;;18.80;99.90;;;;;;5030481;28;20281;-78
2022/11/10 11:03:45;;;;;;;2.03;0.40;;;18.80;99.90;;;;;;5030425;28;20692;-76
2022/11/10 11:06:24;;;;;;;3.38;0.43;;;18.80;99.90;;;;;;5026376;28;20252;-79
2022/11/10 11:09:00;;;;;;;2.80;0.63;;;18.80;99.90;;;;;;5027291;28;20194;-78
2022/11/10 11:11:33;;;;;;;2.05;0.50;;;18.80;99.90;;;;;;5030261;28;20198;-77
2022/11/10 11:14:22;;;;;;;1.45;0.40;;;18.80;99.90;;;;;;5029067;28;20195;-79
2022/11/10 11:16:56;;;;;;;4.40;0.95;;;18.80;99.90;;;;;;5030658;28;20199;-77
2022/11/10 11:19:28;;;;;;;2.13;0.40;;;18.70;99.90;;;;;;5024723;28;20206;-77
2022/11/10 11:22:30;;;;;;;1.77;0.43;;;18.70;99.90;;;;;;5029540;28;20281;-77
2022/11/10 11:25:09;;;;;;;1.52;0.40;;;18.70;99.90;;;;;;5029355;28;20209;-78
2022/11/10 11:27:49;;;;;;;1.10;0.52;;;18.70;99.90;;;;;;5027220;28;20552;-77
2022/11/10 11:30:21;;;;;;;2.92;0.60;;;18.70;99.90;;;;;;5031037;28;20190;-77
2022/11/10 11:33:17;;;;;;;2.45;0.47;;;18.70;99.90;;;;;;5032119;28;20242;-77
2022/11/10 11:35:51;;;;;;;1.55;0.40;;;18.70;99.90;;;;;;5027217;28;20198;-76
2022/11/10 11:38:32;;;;;;;5.63;0.73;;;18.70;99.90;;;;;;5024188;28;20241;-77
2022/11/10 11:41:16;;;;;;;1.52;0.52;;;18.70;99.90;;;;;;5031305;28;20252;-75
2022/11/10 11:44:05;;;;;;;2.22;0.50;;;18.70;99.90;;;;;;5032219;28;20220;-77
2022/11/10 11:46:43;;;;;;;0.98;0.38;;;18.60;99.90;;;;;;5026209;28;20210;-75
2022/11/10 11:49:41;;;;;;;3.17;0.40;;;18.60;99.90;;;;;;5029189;28;20221;-76
2022/11/10 11:52:23;;;;;;;1.50;0.50;;;18.60;99.90;;;;;;5026584;28;20199;-77
2022/11/10 11:55:17;;;;;;;1.30;0.47;;;18.70;99.90;;;;;;5027109;28;20208;-75
2022/11/10 11:58:00;;;;;;;1.60;0.45;;;18.60;99.90;;;;;;5028326;28;20690;-76
2022/11/10 12:00:39;;;;;;;3.08;0.40;;;18.70;99.90;;;;;;5028759;28;20202;-76
2022/11/10 12:03:33;;;;;;;1.90;0.52;;;18.60;99.90;;;;;;5030367;28;20612;-76
2022/11/10 12:06:26;;;;;;;2.25;0.60;;;18.60;99.90;;;;;;5033725;28;20653;-76
2022/11/10 12:09:03;;;;;;;1.23;0.40;;;18.60;99.90;;;;;;5030718;28;20657;-76
2022/11/10 12:11:48;;;;;;;1.67;0.50;;;18.60;99.90;;;;;;5033280;28;20198;-76
2022/11/10 12:14:26;;;;;;;2.20;0.70;;;18.60;99.90;;;;;;5033156;28;20680;-76
2022/11/10 12:17:05;;;;;;;3.13;0.60;;;18.60;99.90;;;;;;5034622;28;20197;-76
2022/11/10 12:19:44;;;;;;;6.57;0.70;;;18.60;99.90;;;;;;5032846;28;20564;-75
2022/11/10 12:22:30;;;;;;;3.35;0.60;;;18.60;99.90;;;;;;5033215;28;20198;-76
2022/11/10 12:25:15;;;;;;;4.53;0.38;;;18.50;99.90;;;;;;5031593;28;20697;-76
2022/11/10 12:27:48;;;;;;;1.65;0.40;;;18.50;99.90;;;;;;5024120;28;20228;-76
2022/11/10 12:30:20;;;;;;;2.55;0.63;;;18.50;99.90;;;;;;5032924;28;20202;-76
2022/11/10 12:32:57;;;;;;;3.95;0.50;;;18.50;99.90;;;;;;5033984;28;20200;-76
2022/11/10 12:35:32;;;;;;;2.20;0.40;;;18.50;99.90;;;;;;5028639;28;20206;-79
2022/11/10 12:38:09;;;;;;;1.92;0.50;;;18.50;99.90;;;;;;5034059;28;20230;-77
2022/11/10 12:40:43;;;;;;;1.58;0.40;;;18.40;99.90;;;;;;5024649;28;20658;-75
2022/11/10 12:43:20;;;;;;;1.63;0.40;;;18.40;99.90;;;;;;5028466;28;20194;-76
2022/11/10 12:45:55;;;;;;;1.48;0.30;;;18.40;99.90;;;;;;5029062;28;20190;-76
2022/11/10 12:48:28;;;;;;;1.90;0.57;;;18.40;99.90;;;;;;5033131;28;20204;-76
2022/11/10 12:51:06;;;;;;;2.25;0.60;;;18.40;99.90;;;;;;5030306;28;20194;-76
2022/11/10 12:53:42;;;;;;;2.00;0.43;;;18.30;99.90;;;;;;5027440;28;20202;-75
2022/11/10 12:56:19;;;;;;;0.95;0.40;;;18.30;99.90;;;;;;5027567;28;20198;-76
2022/11/10 12:58:50;;;;;;;2.65;0.40;;;18.30;99.90;;;;;;5034195;28;20725;-77
2022/11/10 13:01:22;;;;;;;2.58;0.40;;;18.30;99.90;;;;;;5028270;28;20198;-76
2022/11/10 13:03:58;;;;;;;3.75;0.50;;;18.30;99.90;;;;;;5031116;28;20209;-76
2022/11/10 13:06:32;;;;;;;1.63;0.40;;;18.30;99.90;;;;;;5031860;28;20198;-76
2022/11/10 13:09:05;;;;;;;2.63;0.50;;;18.30;99.90;;;;;;5033724;28;20205;-76
2022/11/10 13:11:39;;;;;;;3.20;0.30;;;18.30;99.90;;;;;;5030975;28;20226;-76
2022/11/10 13:14:24;;;;;;;3.08;0.60;;;18.30;99.90;;;;;;5027687;28;20194;-76
2022/11/10 13:16:55;;;;;;;1.25;0.40;;;18.30;99.90;;;;;;5022382;28;20228;-76
2022/11/10 13:19:50;;;;;;;3.13;0.60;;;18.30;99.90;;;;;;5025402;28;20657;-77
2022/11/10 13:22:39;;;;;;;2.70;0.65;;;18.30;99.90;;;;;;5030862;28;20198;-77
2022/11/10 13:25:55;;;;;;;2.08;0.50;;;18.30;99.90;;;;;;5028089;28;20218;-77
2022/11/10 13:29:20;;;;;;;2.25;0.57;;;18.20;99.90;;;;;;5024842;28;20256;-76
2022/11/10 13:31:56;;;;;;;3.00;0.57;;;18.10;99.90;;;;;;5023821;28;20202;-76
2022/11/10 13:34:33;;;;;;;1.95;0.57;;;18.10;99.90;;;;;;5031507;28;20553;-76